sensor_id;sensor_type;location;lat;lon;timestamp;pressure;altitude;pressure_sealevel;temperature
42119;BMP280;27783;42.782;23.274;2023-08-17T00:01:57;95594.06;;;20.68
42119;BMP280;27783;42.782;23.274;2023-08-17T00:04:22;95602.09;;;20.68
42119;BMP280;27783;42.782;23.274;2023-08-17T00:06:48;95598.22;;;20.60
42119;BMP280;27783;42.782;23.274;2023-08-17T00:09:15;95602.97;;;20.56
42119;BMP280;27783;42.782;23.274;2023-08-17T00:11:41;95601.19;;;20.53
42119;BMP280;27783;42.782;23.274;2023-08-17T00:14:09;95601.47;;;20.55
42119;BMP280;27783;42.782;23.274;2023-08-17T00:16:35;95602.84;;;20.60
42119;BMP280;27783;42.782;23.274;2023-08-17T00:19:03;95599.84;;;20.58
42119;BMP280;27783;42.782;23.274;2023-08-17T00:21:29;95592.88;;;20.60
42119;BMP280;27783;42.782;23.274;2023-08-17T00:23:57;95598.47;;;20.45
42119;BMP280;27783;42.782;23.274;2023-08-17T00:26:23;95608.75;;;20.46
42119;BMP280;27783;42.782;23.274;2023-08-17T00:28:50;95604.69;;;20.42
42119;BMP280;27783;42.782;23.274;2023-08-17T00:31:15;95604.09;;;20.38
42119;BMP280;27783;42.782;23.274;2023-08-17T00:33:41;95604.16;;;20.26
42119;BMP280;27783;42.782;23.274;2023-08-17T00:36:06;95601.59;;;20.14
42119;BMP280;27783;42.782;23.274;2023-08-17T00:38:32;95601.25;;;20.12
42119;BMP280;27783;42.782;23.274;2023-08-17T00:40:58;95595.84;;;20.24
42119;BMP280;27783;42.782;23.274;2023-08-17T00:43:25;95593.22;;;20.12
42119;BMP280;27783;42.782;23.274;2023-08-17T00:45:53;95594.44;;;20.11
42119;BMP280;27783;42.782;23.274;2023-08-17T00:48:19;95592.91;;;20.01
42119;BMP280;27783;42.782;23.274;2023-08-17T00:50:54;95603.25;;;19.90
42119;BMP280;27783;42.782;23.274;2023-08-17T00:53:21;95591.63;;;19.85
42119;BMP280;27783;42.782;23.274;2023-08-17T00:55:47;95594.91;;;19.88
42119;BMP280;27783;42.782;23.274;2023-08-17T00:58:17;95597.41;;;19.83
42119;BMP280;27783;42.782;23.274;2023-08-17T01:00:42;95602.94;;;19.88
42119;BMP280;27783;42.782;23.274;2023-08-17T01:03:08;95597.28;;;19.86
42119;BMP280;27783;42.782;23.274;2023-08-17T01:05:35;95602.88;;;19.80
42119;BMP280;27783;42.782;23.274;2023-08-17T01:08:06;95601.97;;;19.74
42119;BMP280;27783;42.782;23.274;2023-08-17T01:13:27;95597.66;;;19.76
42119;BMP280;27783;42.782;23.274;2023-08-17T01:15:58;95599.94;;;19.86
42119;BMP280;27783;42.782;23.274;2023-08-17T01:18:29;95597.97;;;19.78
42119;BMP280;27783;42.782;23.274;2023-08-17T01:20:57;95601.22;;;19.73
42119;BMP280;27783;42.782;23.274;2023-08-17T01:23:24;95602.75;;;19.62
42119;BMP280;27783;42.782;23.274;2023-08-17T01:25:50;95603.56;;;19.51
42119;BMP280;27783;42.782;23.274;2023-08-17T01:28:16;95606.03;;;19.45
42119;BMP280;27783;42.782;23.274;2023-08-17T01:31:05;95591.47;;;19.46
42119;BMP280;27783;42.782;23.274;2023-08-17T01:33:44;95598.97;;;19.51
42119;BMP280;27783;42.782;23.274;2023-08-17T01:36:36;95597.69;;;19.55
42119;BMP280;27783;42.782;23.274;2023-08-17T01:39:03;95597.41;;;19.62
42119;BMP280;27783;42.782;23.274;2023-08-17T01:41:30;95603.88;;;19.52
42119;BMP280;27783;42.782;23.274;2023-08-17T01:44:05;95600.34;;;19.55
42119;BMP280;27783;42.782;23.274;2023-08-17T01:46:33;95597.53;;;19.59
42119;BMP280;27783;42.782;23.274;2023-08-17T01:48:58;95597.81;;;19.52
42119;BMP280;27783;42.782;23.274;2023-08-17T01:51:25;95600.50;;;19.40
42119;BMP280;27783;42.782;23.274;2023-08-17T01:53:51;95599.16;;;19.36
42119;BMP280;27783;42.782;23.274;2023-08-17T01:56:16;95593.56;;;19.42
42119;BMP280;27783;42.782;23.274;2023-08-17T01:58:43;95599.31;;;19.41
42119;BMP280;27783;42.782;23.274;2023-08-17T02:01:12;95593.34;;;19.37
42119;BMP280;27783;42.782;23.274;2023-08-17T02:03:37;95594.75;;;19.29
42119;BMP280;27783;42.782;23.274;2023-08-17T02:06:03;95595.03;;;19.22
42119;BMP280;27783;42.782;23.274;2023-08-17T02:08:33;95589.28;;;19.33
42119;BMP280;27783;42.782;23.274;2023-08-17T02:11:07;95597.38;;;19.20
42119;BMP280;27783;42.782;23.274;2023-08-17T02:13:33;95597.50;;;19.17
42119;BMP280;27783;42.782;23.274;2023-08-17T02:16:00;95591.09;;;19.15
42119;BMP280;27783;42.782;23.274;2023-08-17T02:18:26;95588.25;;;19.09
42119;BMP280;27783;42.782;23.274;2023-08-17T02:20:55;95592.19;;;19.05
42119;BMP280;27783;42.782;23.274;2023-08-17T02:23:35;95583.25;;;18.99
42119;BMP280;27783;42.782;23.274;2023-08-17T02:26:02;95584.94;;;18.93
42119;BMP280;27783;42.782;23.274;2023-08-17T02:28:28;95590.09;;;18.88
42119;BMP280;27783;42.782;23.274;2023-08-17T02:30:55;95588.81;;;18.92
42119;BMP280;27783;42.782;23.274;2023-08-17T02:33:22;95591.50;;;18.92
42119;BMP280;27783;42.782;23.274;2023-08-17T02:35:49;95586.50;;;18.82
42119;BMP280;27783;42.782;23.274;2023-08-17T02:38:29;95586.16;;;18.92
42119;BMP280;27783;42.782;23.274;2023-08-17T02:40:57;95589.13;;;18.94
42119;BMP280;27783;42.782;23.274;2023-08-17T02:43:23;95587.25;;;18.83
42119;BMP280;27783;42.782;23.274;2023-08-17T02:45:49;95584.66;;;18.91
42119;BMP280;27783;42.782;23.274;2023-08-17T02:48:16;95583.38;;;18.96
42119;BMP280;27783;42.782;23.274;2023-08-17T02:50:43;95579.00;;;18.89
42119;BMP280;27783;42.782;23.274;2023-08-17T02:53:08;95576.34;;;18.89
42119;BMP280;27783;42.782;23.274;2023-08-17T02:55:36;95587.31;;;18.91
42119;BMP280;27783;42.782;23.274;2023-08-17T02:58:02;95586.03;;;18.84
42119;BMP280;27783;42.782;23.274;2023-08-17T03:00:28;95581.25;;;18.79
42119;BMP280;27783;42.782;23.274;2023-08-17T03:02:53;95586.19;;;18.68
42119;BMP280;27783;42.782;23.274;2023-08-17T03:05:19;95587.47;;;18.76
42119;BMP280;27783;42.782;23.274;2023-08-17T03:07:44;95586.09;;;18.71
42119;BMP280;27783;42.782;23.274;2023-08-17T03:10:09;95590.38;;;18.69
42119;BMP280;27783;42.782;23.274;2023-08-17T03:12:35;95586.66;;;18.67
42119;BMP280;27783;42.782;23.274;2023-08-17T03:15:03;95590.13;;;18.64
42119;BMP280;27783;42.782;23.274;2023-08-17T03:17:29;95587.81;;;18.66
42119;BMP280;27783;42.782;23.274;2023-08-17T03:19:55;95595.69;;;18.57
42119;BMP280;27783;42.782;23.274;2023-08-17T03:22:21;95591.09;;;18.57
42119;BMP280;27783;42.782;23.274;2023-08-17T03:24:46;95589.50;;;18.60
42119;BMP280;27783;42.782;23.274;2023-08-17T03:27:16;95597.28;;;18.54
42119;BMP280;27783;42.782;23.274;2023-08-17T03:29:42;95597.50;;;18.48
42119;BMP280;27783;42.782;23.274;2023-08-17T03:32:10;95603.06;;;18.41
42119;BMP280;27783;42.782;23.274;2023-08-17T03:34:36;95599.66;;;18.40
42119;BMP280;27783;42.782;23.274;2023-08-17T03:37:04;95600.53;;;18.50
42119;BMP280;27783;42.782;23.274;2023-08-17T03:39:32;95599.34;;;18.38
42119;BMP280;27783;42.782;23.274;2023-08-17T03:41:58;95602.97;;;18.44
42119;BMP280;27783;42.782;23.274;2023-08-17T03:44:24;95604.88;;;18.44
42119;BMP280;27783;42.782;23.274;2023-08-17T03:46:51;95611.41;;;18.43
42119;BMP280;27783;42.782;23.274;2023-08-17T03:49:16;95607.66;;;18.40
42119;BMP280;27783;42.782;23.274;2023-08-17T03:51:42;95608.09;;;18.39
42119;BMP280;27783;42.782;23.274;2023-08-17T03:54:25;95613.25;;;18.34
42119;BMP280;27783;42.782;23.274;2023-08-17T03:56:58;95611.94;;;18.38
42119;BMP280;27783;42.782;23.274;2023-08-17T03:59:30;95616.88;;;18.39
42119;BMP280;27783;42.782;23.274;2023-08-17T04:01:55;95609.69;;;18.49
42119;BMP280;27783;42.782;23.274;2023-08-17T04:04:23;95616.19;;;18.48
42119;BMP280;27783;42.782;23.274;2023-08-17T04:06:49;95611.69;;;18.57
42119;BMP280;27783;42.782;23.274;2023-08-17T04:09:15;95610.75;;;18.63
42119;BMP280;27783;42.782;23.274;2023-08-17T04:11:42;95616.94;;;18.60
42119;BMP280;27783;42.782;23.274;2023-08-17T04:14:08;95621.22;;;18.70
42119;BMP280;27783;42.782;23.274;2023-08-17T04:16:34;95622.94;;;18.76
42119;BMP280;27783;42.782;23.274;2023-08-17T04:19:04;95618.44;;;18.86
42119;BMP280;27783;42.782;23.274;2023-08-17T04:21:30;95618.97;;;18.93
42119;BMP280;27783;42.782;23.274;2023-08-17T04:23:56;95617.66;;;18.97
42119;BMP280;27783;42.782;23.274;2023-08-17T04:26:22;95614.84;;;19.01
42119;BMP280;27783;42.782;23.274;2023-08-17T04:28:49;95614.38;;;19.14
42119;BMP280;27783;42.782;23.274;2023-08-17T04:31:15;95622.28;;;19.18
42119;BMP280;27783;42.782;23.274;2023-08-17T04:33:42;95610.94;;;19.26
42119;BMP280;27783;42.782;23.274;2023-08-17T04:36:07;95609.97;;;19.32
42119;BMP280;27783;42.782;23.274;2023-08-17T04:38:33;95616.13;;;19.29
42119;BMP280;27783;42.782;23.274;2023-08-17T04:40:59;95616.53;;;19.40
42119;BMP280;27783;42.782;23.274;2023-08-17T04:43:24;95619.69;;;19.59
42119;BMP280;27783;42.782;23.274;2023-08-17T04:45:51;95613.94;;;19.69
42119;BMP280;27783;42.782;23.274;2023-08-17T04:48:17;95618.38;;;19.85
42119;BMP280;27783;42.782;23.274;2023-08-17T04:50:43;95617.56;;;20.05
42119;BMP280;27783;42.782;23.274;2023-08-17T04:53:10;95614.34;;;20.31
42119;BMP280;27783;42.782;23.274;2023-08-17T04:55:36;95619.59;;;20.43
42119;BMP280;27783;42.782;23.274;2023-08-17T04:58:03;95620.19;;;20.47
42119;BMP280;27783;42.782;23.274;2023-08-17T05:00:30;95617.59;;;20.73
42119;BMP280;27783;42.782;23.274;2023-08-17T05:02:56;95609.28;;;20.88
42119;BMP280;27783;42.782;23.274;2023-08-17T05:05:23;95615.28;;;21.01
42119;BMP280;27783;42.782;23.274;2023-08-17T05:07:49;95613.19;;;20.96
42119;BMP280;27783;42.782;23.274;2023-08-17T05:10:15;95610.41;;;21.08
42119;BMP280;27783;42.782;23.274;2023-08-17T05:12:41;95606.41;;;21.21
42119;BMP280;27783;42.782;23.274;2023-08-17T05:15:15;95609.53;;;21.37
42119;BMP280;27783;42.782;23.274;2023-08-17T05:17:41;95612.53;;;21.39
42119;BMP280;27783;42.782;23.274;2023-08-17T05:20:07;95616.38;;;21.47
42119;BMP280;27783;42.782;23.274;2023-08-17T05:22:33;95611.91;;;21.44
42119;BMP280;27783;42.782;23.274;2023-08-17T05:25:00;95612.94;;;21.47
42119;BMP280;27783;42.782;23.274;2023-08-17T05:27:25;95608.94;;;21.51
42119;BMP280;27783;42.782;23.274;2023-08-17T05:29:50;95614.56;;;21.70
42119;BMP280;27783;42.782;23.274;2023-08-17T05:32:18;95609.38;;;21.76
42119;BMP280;27783;42.782;23.274;2023-08-17T05:34:44;95606.34;;;22.09
42119;BMP280;27783;42.782;23.274;2023-08-17T05:37:11;95606.00;;;22.16
42119;BMP280;27783;42.782;23.274;2023-08-17T05:39:38;95602.84;;;22.26
42119;BMP280;27783;42.782;23.274;2023-08-17T05:42:04;95609.19;;;22.55
42119;BMP280;27783;42.782;23.274;2023-08-17T05:44:30;95606.13;;;22.70
42119;BMP280;27783;42.782;23.274;2023-08-17T05:46:55;95607.81;;;22.90
42119;BMP280;27783;42.782;23.274;2023-08-17T05:49:24;95601.41;;;23.11
42119;BMP280;27783;42.782;23.274;2023-08-17T05:51:50;95602.19;;;23.48
42119;BMP280;27783;42.782;23.274;2023-08-17T05:54:18;95602.06;;;23.80
42119;BMP280;27783;42.782;23.274;2023-08-17T05:56:43;95605.09;;;23.59
42119;BMP280;27783;42.782;23.274;2023-08-17T05:59:13;95606.28;;;24.09
42119;BMP280;27783;42.782;23.274;2023-08-17T06:01:39;95601.53;;;24.18
42119;BMP280;27783;42.782;23.274;2023-08-17T06:04:06;95594.00;;;24.36
42119;BMP280;27783;42.782;23.274;2023-08-17T06:06:34;95594.22;;;24.66
42119;BMP280;27783;42.782;23.274;2023-08-17T06:09:01;95593.78;;;24.68
42119;BMP280;27783;42.782;23.274;2023-08-17T06:11:26;95594.50;;;25.02
42119;BMP280;27783;42.782;23.274;2023-08-17T06:13:56;95592.84;;;25.43
42119;BMP280;27783;42.782;23.274;2023-08-17T06:16:22;95588.38;;;25.59
42119;BMP280;27783;42.782;23.274;2023-08-17T06:18:50;95589.13;;;25.60
42119;BMP280;27783;42.782;23.274;2023-08-17T06:21:34;95591.13;;;25.65
42119;BMP280;27783;42.782;23.274;2023-08-17T06:24:00;95591.75;;;25.55
42119;BMP280;27783;42.782;23.274;2023-08-17T06:26:26;95588.44;;;26.14
42119;BMP280;27783;42.782;23.274;2023-08-17T06:29:31;95590.00;;;26.51
42119;BMP280;27783;42.782;23.274;2023-08-17T06:32:00;95593.97;;;26.50
42119;BMP280;27783;42.782;23.274;2023-08-17T06:34:44;95591.25;;;26.50
42119;BMP280;27783;42.782;23.274;2023-08-17T06:37:11;95588.72;;;27.12
42119;BMP280;27783;42.782;23.274;2023-08-17T06:39:48;95585.28;;;27.11
42119;BMP280;27783;42.782;23.274;2023-08-17T06:42:16;95585.41;;;27.38
42119;BMP280;27783;42.782;23.274;2023-08-17T06:44:43;95589.94;;;27.62
42119;BMP280;27783;42.782;23.274;2023-08-17T06:47:08;95588.44;;;27.05
42119;BMP280;27783;42.782;23.274;2023-08-17T06:49:35;95589.63;;;27.50
42119;BMP280;27783;42.782;23.274;2023-08-17T06:52:00;95590.16;;;27.59
42119;BMP280;27783;42.782;23.274;2023-08-17T06:54:26;95586.78;;;27.80
42119;BMP280;27783;42.782;23.274;2023-08-17T06:56:52;95585.84;;;27.93
42119;BMP280;27783;42.782;23.274;2023-08-17T06:59:19;95586.81;;;27.96
42119;BMP280;27783;42.782;23.274;2023-08-17T07:01:44;95585.16;;;28.30
42119;BMP280;27783;42.782;23.274;2023-08-17T07:04:11;95581.72;;;28.14
42119;BMP280;27783;42.782;23.274;2023-08-17T07:06:38;95587.78;;;27.93
42119;BMP280;27783;42.782;23.274;2023-08-17T07:09:04;95585.66;;;28.29
42119;BMP280;27783;42.782;23.274;2023-08-17T07:11:32;95585.41;;;28.27
42119;BMP280;27783;42.782;23.274;2023-08-17T07:13:58;95575.06;;;28.20
42119;BMP280;27783;42.782;23.274;2023-08-17T07:16:23;95585.66;;;28.29
42119;BMP280;27783;42.782;23.274;2023-08-17T07:18:49;95576.28;;;28.78
42119;BMP280;27783;42.782;23.274;2023-08-17T07:21:15;95579.50;;;28.50
42119;BMP280;27783;42.782;23.274;2023-08-17T07:23:44;95576.47;;;29.12
42119;BMP280;27783;42.782;23.274;2023-08-17T07:26:32;95573.06;;;28.90
42119;BMP280;27783;42.782;23.274;2023-08-17T07:28:58;95578.19;;;29.04
42119;BMP280;27783;42.782;23.274;2023-08-17T07:31:25;95574.75;;;28.98
42119;BMP280;27783;42.782;23.274;2023-08-17T07:33:53;95576.53;;;28.80
42119;BMP280;27783;42.782;23.274;2023-08-17T07:36:18;95573.00;;;29.11
42119;BMP280;27783;42.782;23.274;2023-08-17T07:38:46;95579.41;;;29.14
42119;BMP280;27783;42.782;23.274;2023-08-17T07:41:12;95577.66;;;29.22
42119;BMP280;27783;42.782;23.274;2023-08-17T07:43:39;95569.91;;;30.02
42119;BMP280;27783;42.782;23.274;2023-08-17T07:46:04;95559.31;;;29.94
42119;BMP280;27783;42.782;23.274;2023-08-17T07:48:43;95560.75;;;30.05
42119;BMP280;27783;42.782;23.274;2023-08-17T07:51:08;95564.47;;;29.52
42119;BMP280;27783;42.782;23.274;2023-08-17T07:53:40;95572.53;;;29.79
42119;BMP280;27783;42.782;23.274;2023-08-17T07:56:05;95562.56;;;30.31
42119;BMP280;27783;42.782;23.274;2023-08-17T07:58:32;95551.22;;;30.22
42119;BMP280;27783;42.782;23.274;2023-08-17T08:01:00;95549.50;;;29.85
42119;BMP280;27783;42.782;23.274;2023-08-17T08:03:26;95549.84;;;30.39
42119;BMP280;27783;42.782;23.274;2023-08-17T08:05:52;95552.13;;;30.01
42119;BMP280;27783;42.782;23.274;2023-08-17T08:08:44;95551.44;;;30.29
42119;BMP280;27783;42.782;23.274;2023-08-17T08:11:38;95544.47;;;30.34
42119;BMP280;27783;42.782;23.274;2023-08-17T08:14:08;95541.34;;;30.77
42119;BMP280;27783;42.782;23.274;2023-08-17T08:16:34;95535.78;;;30.93
42119;BMP280;27783;42.782;23.274;2023-08-17T08:19:03;95538.78;;;30.61
42119;BMP280;27783;42.782;23.274;2023-08-17T08:21:29;95543.47;;;30.89
42119;BMP280;27783;42.782;23.274;2023-08-17T08:23:54;95535.66;;;31.03
42119;BMP280;27783;42.782;23.274;2023-08-17T08:26:21;95535.13;;;30.58
42119;BMP280;27783;42.782;23.274;2023-08-17T08:28:47;95536.16;;;30.50
42119;BMP280;27783;42.782;23.274;2023-08-17T08:31:14;95537.22;;;30.70
42119;BMP280;27783;42.782;23.274;2023-08-17T08:33:46;95535.94;;;30.48
42119;BMP280;27783;42.782;23.274;2023-08-17T08:36:11;95541.38;;;31.23
42119;BMP280;27783;42.782;23.274;2023-08-17T08:38:37;95527.34;;;31.55
42119;BMP280;27783;42.782;23.274;2023-08-17T08:41:03;95532.69;;;30.78
42119;BMP280;27783;42.782;23.274;2023-08-17T08:43:31;95532.16;;;30.85
42119;BMP280;27783;42.782;23.274;2023-08-17T08:45:58;95531.66;;;31.28
42119;BMP280;27783;42.782;23.274;2023-08-17T08:48:26;95527.28;;;31.43
42119;BMP280;27783;42.782;23.274;2023-08-17T08:50:54;95528.63;;;31.72
42119;BMP280;27783;42.782;23.274;2023-08-17T08:53:21;95518.75;;;31.33
42119;BMP280;27783;42.782;23.274;2023-08-17T08:55:57;95517.03;;;31.48
42119;BMP280;27783;42.782;23.274;2023-08-17T08:58:26;95518.16;;;31.58
42119;BMP280;27783;42.782;23.274;2023-08-17T09:00:53;95505.13;;;31.28
42119;BMP280;27783;42.782;23.274;2023-08-17T09:03:21;95505.94;;;31.82
42119;BMP280;27783;42.782;23.274;2023-08-17T09:05:48;95499.59;;;31.57
42119;BMP280;27783;42.782;23.274;2023-08-17T09:08:21;95498.69;;;32.03
42119;BMP280;27783;42.782;23.274;2023-08-17T09:10:49;95496.78;;;31.62
42119;BMP280;27783;42.782;23.274;2023-08-17T09:13:15;95493.81;;;32.27
42119;BMP280;27783;42.782;23.274;2023-08-17T09:15:42;95495.41;;;32.53
42119;BMP280;27783;42.782;23.274;2023-08-17T09:18:11;95489.84;;;32.28
42119;BMP280;27783;42.782;23.274;2023-08-17T09:20:42;95489.25;;;32.34
42119;BMP280;27783;42.782;23.274;2023-08-17T09:23:15;95489.50;;;32.36
42119;BMP280;27783;42.782;23.274;2023-08-17T09:25:48;95469.75;;;32.43
42119;BMP280;27783;42.782;23.274;2023-08-17T09:28:17;95476.31;;;33.03
42119;BMP280;27783;42.782;23.274;2023-08-17T09:31:02;95473.75;;;32.55
42119;BMP280;27783;42.782;23.274;2023-08-17T09:33:36;95469.94;;;32.32
42119;BMP280;27783;42.782;23.274;2023-08-17T09:36:02;95466.59;;;32.39
42119;BMP280;27783;42.782;23.274;2023-08-17T09:38:37;95477.41;;;32.14
42119;BMP280;27783;42.782;23.274;2023-08-17T09:41:25;95471.50;;;33.22
42119;BMP280;27783;42.782;23.274;2023-08-17T09:43:54;95464.41;;;32.63
42119;BMP280;27783;42.782;23.274;2023-08-17T09:46:46;95459.19;;;32.22
42119;BMP280;27783;42.782;23.274;2023-08-17T09:49:16;95452.47;;;32.23
42119;BMP280;27783;42.782;23.274;2023-08-17T09:51:46;95450.13;;;32.57
42119;BMP280;27783;42.782;23.274;2023-08-17T09:54:24;95450.06;;;33.00
42119;BMP280;27783;42.782;23.274;2023-08-17T09:56:53;95445.19;;;33.19
42119;BMP280;27783;42.782;23.274;2023-08-17T09:59:20;95443.19;;;33.19
42119;BMP280;27783;42.782;23.274;2023-08-17T10:01:50;95448.19;;;32.96
42119;BMP280;27783;42.782;23.274;2023-08-17T10:04:21;95438.03;;;34.06
42119;BMP280;27783;42.782;23.274;2023-08-17T10:07:20;95440.97;;;33.43
42119;BMP280;27783;42.782;23.274;2023-08-17T10:09:53;95435.13;;;33.14
42119;BMP280;27783;42.782;23.274;2023-08-17T10:12:25;95436.81;;;33.17
42119;BMP280;27783;42.782;23.274;2023-08-17T10:15:15;95426.47;;;33.35
42119;BMP280;27783;42.782;23.274;2023-08-17T10:21:15;95430.72;;;33.11
42119;BMP280;27783;42.782;23.274;2023-08-17T10:23:44;95428.53;;;35.29
42119;BMP280;27783;42.782;23.274;2023-08-17T10:26:12;95427.13;;;33.16
42119;BMP280;27783;42.782;23.274;2023-08-17T10:28:38;95432.25;;;33.32
42119;BMP280;27783;42.782;23.274;2023-08-17T10:31:07;95423.66;;;33.93
42119;BMP280;27783;42.782;23.274;2023-08-17T10:33:33;95425.19;;;34.01
42119;BMP280;27783;42.782;23.274;2023-08-17T10:36:02;95418.97;;;33.48
42119;BMP280;27783;42.782;23.274;2023-08-17T10:38:27;95422.75;;;34.31
42119;BMP280;27783;42.782;23.274;2023-08-17T10:41:13;95417.13;;;33.76
42119;BMP280;27783;42.782;23.274;2023-08-17T10:43:59;95408.09;;;33.88
42119;BMP280;27783;42.782;23.274;2023-08-17T10:46:37;95412.00;;;33.28
42119;BMP280;27783;42.782;23.274;2023-08-17T10:49:27;95408.31;;;33.38
42119;BMP280;27783;42.782;23.274;2023-08-17T10:52:03;95408.81;;;32.23
42119;BMP280;27783;42.782;23.274;2023-08-17T10:54:44;95398.97;;;34.26
42119;BMP280;27783;42.782;23.274;2023-08-17T10:57:42;95394.25;;;33.86
42119;BMP280;27783;42.782;23.274;2023-08-17T11:03:18;95406.59;;;33.80
42119;BMP280;27783;42.782;23.274;2023-08-17T11:05:54;95414.19;;;33.16
42119;BMP280;27783;42.782;23.274;2023-08-17T11:08:52;95397.13;;;33.81
42119;BMP280;27783;42.782;23.274;2023-08-17T11:11:20;95390.63;;;33.71
42119;BMP280;27783;42.782;23.274;2023-08-17T11:14:06;95393.34;;;33.39
42119;BMP280;27783;42.782;23.274;2023-08-17T11:16:55;95394.41;;;33.36
42119;BMP280;27783;42.782;23.274;2023-08-17T11:19:43;95379.28;;;34.27
42119;BMP280;27783;42.782;23.274;2023-08-17T11:22:09;95381.75;;;33.98
42119;BMP280;27783;42.782;23.274;2023-08-17T11:24:35;95382.03;;;33.75
42119;BMP280;27783;42.782;23.274;2023-08-17T11:27:06;95377.22;;;34.00
42119;BMP280;27783;42.782;23.274;2023-08-17T11:29:34;95368.13;;;34.05
42119;BMP280;27783;42.782;23.274;2023-08-17T11:32:00;95383.41;;;33.16
42119;BMP280;27783;42.782;23.274;2023-08-17T11:34:29;95382.34;;;33.32
42119;BMP280;27783;42.782;23.274;2023-08-17T11:36:57;95372.28;;;33.99
42119;BMP280;27783;42.782;23.274;2023-08-17T11:39:23;95372.03;;;33.90
42119;BMP280;27783;42.782;23.274;2023-08-17T11:41:50;95364.84;;;33.47
42119;BMP280;27783;42.782;23.274;2023-08-17T11:44:19;95366.72;;;33.72
42119;BMP280;27783;42.782;23.274;2023-08-17T11:46:52;95369.88;;;33.96
42119;BMP280;27783;42.782;23.274;2023-08-17T11:49:19;95366.88;;;33.86
42119;BMP280;27783;42.782;23.274;2023-08-17T11:51:45;95356.38;;;34.17
42119;BMP280;27783;42.782;23.274;2023-08-17T11:54:13;95367.22;;;34.23
42119;BMP280;27783;42.782;23.274;2023-08-17T11:56:39;95364.13;;;33.01
42119;BMP280;27783;42.782;23.274;2023-08-17T11:59:16;95354.78;;;34.22
42119;BMP280;27783;42.782;23.274;2023-08-17T12:01:48;95358.75;;;34.68
42119;BMP280;27783;42.782;23.274;2023-08-17T12:04:15;95358.03;;;34.40
42119;BMP280;27783;42.782;23.274;2023-08-17T12:06:57;95340.44;;;33.69
42119;BMP280;27783;42.782;23.274;2023-08-17T12:09:22;95357.69;;;33.12
42119;BMP280;27783;42.782;23.274;2023-08-17T12:11:48;95352.94;;;33.12
42119;BMP280;27783;42.782;23.274;2023-08-17T12:14:19;95351.25;;;33.09
42119;BMP280;27783;42.782;23.274;2023-08-17T12:16:46;95342.97;;;33.47
42119;BMP280;27783;42.782;23.274;2023-08-17T12:19:14;95345.22;;;32.91
42119;BMP280;27783;42.782;23.274;2023-08-17T12:22:01;95346.63;;;33.17
42119;BMP280;27783;42.782;23.274;2023-08-17T12:24:28;95349.91;;;33.03
42119;BMP280;27783;42.782;23.274;2023-08-17T12:26:57;95343.22;;;33.56
42119;BMP280;27783;42.782;23.274;2023-08-17T12:29:25;95330.84;;;33.95
42119;BMP280;27783;42.782;23.274;2023-08-17T12:31:52;95340.94;;;32.82
42119;BMP280;27783;42.782;23.274;2023-08-17T12:34:17;95339.34;;;32.74
42119;BMP280;27783;42.782;23.274;2023-08-17T12:36:44;95333.84;;;33.65
42119;BMP280;27783;42.782;23.274;2023-08-17T12:39:10;95337.84;;;32.73
42119;BMP280;27783;42.782;23.274;2023-08-17T12:41:36;95338.66;;;33.06
42119;BMP280;27783;42.782;23.274;2023-08-17T12:44:03;95338.81;;;33.33
42119;BMP280;27783;42.782;23.274;2023-08-17T12:46:29;95332.47;;;34.18
42119;BMP280;27783;42.782;23.274;2023-08-17T12:48:58;95338.75;;;33.46
42119;BMP280;27783;42.782;23.274;2023-08-17T12:51:24;95335.16;;;33.51
42119;BMP280;27783;42.782;23.274;2023-08-17T12:53:51;95333.59;;;33.10
42119;BMP280;27783;42.782;23.274;2023-08-17T12:56:17;95330.09;;;32.64
42119;BMP280;27783;42.782;23.274;2023-08-17T12:58:43;95338.91;;;32.70
42119;BMP280;27783;42.782;23.274;2023-08-17T13:01:09;95339.31;;;32.99
42119;BMP280;27783;42.782;23.274;2023-08-17T13:03:34;95341.19;;;33.04
42119;BMP280;27783;42.782;23.274;2023-08-17T13:06:01;95338.94;;;33.15
42119;BMP280;27783;42.782;23.274;2023-08-17T13:08:31;95333.94;;;33.39
42119;BMP280;27783;42.782;23.274;2023-08-17T13:10:56;95339.56;;;32.89
42119;BMP280;27783;42.782;23.274;2023-08-17T13:13:24;95345.00;;;32.76
42119;BMP280;27783;42.782;23.274;2023-08-17T13:15:49;95334.44;;;33.50
42119;BMP280;27783;42.782;23.274;2023-08-17T13:18:15;95334.47;;;32.93
42119;BMP280;27783;42.782;23.274;2023-08-17T13:20:48;95337.97;;;33.38
42119;BMP280;27783;42.782;23.274;2023-08-17T13:23:16;95330.72;;;32.70
42119;BMP280;27783;42.782;23.274;2023-08-17T13:25:44;95329.22;;;33.40
42119;BMP280;27783;42.782;23.274;2023-08-17T13:28:14;95333.59;;;33.10
42119;BMP280;27783;42.782;23.274;2023-08-17T13:30:39;95327.59;;;32.54
42119;BMP280;27783;42.782;23.274;2023-08-17T13:33:05;95331.97;;;32.69
42119;BMP280;27783;42.782;23.274;2023-08-17T13:35:33;95324.28;;;32.93
42119;BMP280;27783;42.782;23.274;2023-08-17T13:37:59;95328.00;;;32.96
42119;BMP280;27783;42.782;23.274;2023-08-17T13:40:25;95333.69;;;32.85
42119;BMP280;27783;42.782;23.274;2023-08-17T13:42:52;95325.69;;;32.62
42119;BMP280;27783;42.782;23.274;2023-08-17T13:45:17;95329.88;;;32.88
42119;BMP280;27783;42.782;23.274;2023-08-17T13:47:43;95337.03;;;32.78
42119;BMP280;27783;42.782;23.274;2023-08-17T13:50:11;95320.41;;;32.76
42119;BMP280;27783;42.782;23.274;2023-08-17T13:52:38;95327.81;;;32.81
42119;BMP280;27783;42.782;23.274;2023-08-17T13:55:05;95321.13;;;33.02
42119;BMP280;27783;42.782;23.274;2023-08-17T13:57:31;95317.34;;;33.05
42119;BMP280;27783;42.782;23.274;2023-08-17T13:59:57;95318.75;;;32.73
42119;BMP280;27783;42.782;23.274;2023-08-17T14:02:22;95319.69;;;33.33
42119;BMP280;27783;42.782;23.274;2023-08-17T14:04:48;95324.13;;;32.66
42119;BMP280;27783;42.782;23.274;2023-08-17T14:07:16;95322.44;;;32.63
42119;BMP280;27783;42.782;23.274;2023-08-17T14:09:41;95315.94;;;32.41
42119;BMP280;27783;42.782;23.274;2023-08-17T14:12:08;95312.53;;;32.73
42119;BMP280;27783;42.782;23.274;2023-08-17T14:14:45;95326.88;;;32.66
42119;BMP280;27783;42.782;23.274;2023-08-17T14:17:11;95320.53;;;32.08